createdAt,value
2018-04-26T00:00:17.219Z,100694.31
2018-04-26T00:01:20.548Z,100686.33
2018-04-26T00:02:23.957Z,100686.02
2018-04-26T00:03:27.298Z,100686.69
2018-04-26T00:04:30.615Z,100695.96
2018-04-26T00:05:33.990Z,100698.05
2018-04-26T00:06:37.329Z,100696.09
2018-04-26T00:07:40.668Z,100686.73
2018-04-26T00:08:44.020Z,100699.82
2018-04-26T00:09:47.430Z,100689.42
2018-04-26T00:10:50.823Z,100689.06
2018-04-26T00:11:54.138Z,100687.80
2018-04-26T00:12:57.470Z,100687.14
2018-04-26T00:14:01.744Z,100695.08
2018-04-26T00:15:05.133Z,100692.94
2018-04-26T00:16:08.480Z,100693.36
2018-04-26T00:17:11.873Z,100691.48
2018-04-26T00:18:15.986Z,100693.04
2018-04-26T00:19:19.332Z,100696.42
2018-04-26T00:20:22.685Z,100692.21
2018-04-26T00:21:26.038Z,100701.96
2018-04-26T00:22:29.425Z,100698.10
2018-04-26T00:23:32.842Z,100701.58
2018-04-26T00:24:36.290Z,100703.11
2018-04-26T00:25:39.649Z,100700.59
2018-04-26T00:26:42.959Z,100703.44
2018-04-26T00:27:46.406Z,100699.89
2018-04-26T00:28:49.779Z,100703.16
2018-04-26T00:29:53.246Z,100694.93
2018-04-26T00:30:56.632Z,100705.32
2018-04-26T00:31:59.961Z,100695.08
2018-04-26T00:33:03.363Z,100702.97
2018-04-26T00:34:06.891Z,100707.55
2018-04-26T00:35:10.227Z,100696.15
2018-04-26T00:36:13.600Z,100703.00
2018-04-26T00:37:16.922Z,100699.24
2018-04-26T00:38:20.520Z,100695.25
2018-04-26T00:39:24.630Z,100700.22
2018-04-26T00:40:28.757Z,100692.16
2018-04-26T00:41:32.142Z,100702.39
2018-04-26T00:42:35.531Z,100701.36
2018-04-26T00:43:38.855Z,100700.98
2018-04-26T00:44:42.192Z,100700.27
2018-04-26T00:45:45.552Z,100701.27
2018-04-26T00:46:48.904Z,100698.67
2018-04-26T00:47:52.259Z,100701.30
2018-04-26T00:48:55.614Z,100695.77
2018-04-26T00:49:59.765Z,100698.20
2018-04-26T00:51:03.235Z,100701.97
2018-04-26T00:52:06.629Z,100702.17
2018-04-26T00:53:10.802Z,100697.94
2018-04-26T00:54:14.384Z,100699.91
2018-04-26T00:55:17.703Z,100701.04
2018-04-26T00:56:21.256Z,100693.94
2018-04-26T00:57:24.622Z,100713.17
2018-04-26T00:58:27.983Z,100697.68
2018-04-26T00:59:31.349Z,100703.05
2018-04-26T01:00:34.722Z,100704.00
2018-04-26T01:01:38.087Z,100704.11
2018-04-26T01:02:41.422Z,100680.98
2018-04-26T01:03:44.765Z,100700.12
2018-04-26T01:04:48.112Z,100699.81
2018-04-26T01:05:51.407Z,100699.30
2018-04-26T01:06:54.755Z,100708.03
2018-04-26T01:07:58.166Z,100699.54
2018-04-26T01:09:01.536Z,100708.95
2018-04-26T01:10:04.909Z,100706.14
2018-04-26T01:11:08.207Z,100695.97
2018-04-26T01:12:11.569Z,100704.42
2018-04-26T01:13:14.871Z,100701.89
2018-04-26T01:14:18.264Z,100704.34
2018-04-26T01:15:21.630Z,100692.34
2018-04-26T01:16:25.033Z,100698.68
2018-04-26T01:17:28.479Z,100703.36
2018-04-26T01:18:32.043Z,100697.39
2018-04-26T01:19:35.426Z,100694.47
2018-04-26T01:20:38.809Z,100695.75
2018-04-26T01:21:42.730Z,100710.91
2018-04-26T01:22:46.873Z,100700.91
2018-04-26T01:23:50.398Z,100700.22
2018-04-26T01:24:54.562Z,100702.08
2018-04-26T01:25:57.889Z,100708.74
2018-04-26T01:27:01.218Z,100700.06
2018-04-26T01:28:04.591Z,100703.50
2018-04-26T01:29:08.683Z,100698.02
2018-04-26T01:30:12.783Z,100699.81
2018-04-26T01:31:16.121Z,100702.30
2018-04-26T01:32:19.449Z,100705.48
2018-04-26T01:33:22.833Z,100700.14
2018-04-26T01:34:26.186Z,100698.45
2018-04-26T01:35:29.552Z,100695.38
2018-04-26T01:36:50.337Z,100692.67
2018-04-26T01:37:53.658Z,100693.11
2018-04-26T01:38:57.184Z,100691.61
2018-04-26T01:40:00.610Z,100688.09
2018-04-26T01:41:04.134Z,100687.33
2018-04-26T01:42:08.273Z,100692.48
2018-04-26T01:43:12.367Z,100690.22
2018-04-26T01:44:16.501Z,100688.92
2018-04-26T01:45:19.946Z,100685.97
2018-04-26T01:46:23.275Z,100688.94
2018-04-26T01:47:27.655Z,100685.85
2018-04-26T01:48:31.018Z,100689.56
2018-04-26T01:49:35.262Z,100688.42
2018-04-26T01:50:38.626Z,100679.31
2018-04-26T01:51:41.968Z,100694.13
2018-04-26T01:52:45.319Z,100692.59
2018-04-26T01:53:48.646Z,100691.03
2018-04-26T01:54:52.105Z,100686.08
2018-04-26T01:55:55.537Z,100693.55
2018-04-26T01:56:59.024Z,100686.02
2018-04-26T01:58:03.322Z,100694.28
2018-04-26T01:59:06.638Z,100684.00
2018-04-26T02:00:10.847Z,100683.09
2018-04-26T02:01:14.999Z,100677.76
2018-04-26T02:02:18.298Z,100694.32
2018-04-26T02:03:21.742Z,100681.98
2018-04-26T02:04:25.110Z,100691.46
2018-04-26T02:05:28.484Z,100687.36
2018-04-26T02:06:31.873Z,100691.98
2018-04-26T02:07:35.178Z,100686.34
2018-04-26T02:08:39.282Z,100695.34
2018-04-26T02:09:43.367Z,100693.12
2018-04-26T02:10:46.742Z,100696.25
2018-04-26T02:11:50.148Z,100690.44
2018-04-26T02:12:54.280Z,100690.26
2018-04-26T02:13:57.611Z,100694.76
2018-04-26T02:15:00.958Z,100690.41
2018-04-26T02:16:04.395Z,100695.38
2018-04-26T02:17:07.711Z,100691.42
2018-04-26T02:18:11.029Z,100688.56
2018-04-26T02:19:14.395Z,100696.59
2018-04-26T02:20:17.792Z,100695.30
2018-04-26T02:21:21.250Z,100699.16
2018-04-26T02:22:24.553Z,100695.38
2018-04-26T02:23:27.879Z,100695.34
2018-04-26T02:24:31.191Z,100691.39
2018-04-26T02:25:34.549Z,100691.86
2018-04-26T02:26:37.900Z,100691.16
2018-04-26T02:27:41.236Z,100695.08
2018-04-26T02:28:45.360Z,100689.88
2018-04-26T02:29:48.703Z,100693.39
2018-04-26T02:30:52.032Z,100688.30
2018-04-26T02:31:56.202Z,100692.70
2018-04-26T02:32:59.506Z,100691.56
2018-04-26T02:34:02.861Z,100688.57
2018-04-26T02:35:06.191Z,100696.00
2018-04-26T02:36:09.498Z,100682.61
2018-04-26T02:37:12.865Z,100694.55
2018-04-26T02:38:16.251Z,100697.80
2018-04-26T02:39:19.622Z,100699.52
2018-04-26T02:40:23.422Z,100698.16
2018-04-26T02:41:27.522Z,100698.78
2018-04-26T02:42:30.850Z,100697.44
2018-04-26T02:43:34.269Z,100701.48
2018-04-26T02:44:37.641Z,100692.84
2018-04-26T02:45:40.997Z,100688.06
2018-04-26T02:46:44.406Z,100688.24
2018-04-26T02:47:47.920Z,100692.02
2018-04-26T02:48:51.239Z,100692.27
2018-04-26T02:49:54.646Z,100677.70
2018-04-26T02:50:58.035Z,100692.45
2018-04-26T02:52:01.433Z,100689.78
2018-04-26T02:53:04.763Z,100696.00
2018-04-26T02:54:08.098Z,100693.00
2018-04-26T02:55:11.404Z,100696.05
2018-04-26T02:56:14.764Z,100683.01
2018-04-26T02:57:18.111Z,100685.72
2018-04-26T02:58:21.482Z,100680.56
2018-04-26T03:00:20.972Z,100696.37
2018-04-26T03:01:24.274Z,100696.59
2018-04-26T03:02:27.601Z,100686.41
2018-04-26T03:03:30.953Z,100692.45
2018-04-26T03:04:35.040Z,100682.67
2018-04-26T03:05:39.240Z,100691.24
2018-04-26T03:06:43.368Z,100700.47
2018-04-26T03:07:46.871Z,100694.37
2018-04-26T03:08:50.272Z,100690.80
2018-04-26T03:09:53.588Z,100704.53
2018-04-26T03:10:56.972Z,100696.19
2018-04-26T03:12:00.290Z,100688.72
2018-04-26T03:13:04.558Z,100690.11
2018-04-26T03:14:07.905Z,100688.94
2018-04-26T03:15:11.231Z,100688.47
2018-04-26T03:16:14.549Z,100684.52
2018-04-26T03:17:17.972Z,100688.06
2018-04-26T03:18:21.441Z,100682.58
2018-04-26T03:19:24.837Z,100677.37
2018-04-26T03:20:28.159Z,100695.05
2018-04-26T03:21:31.500Z,100692.09
2018-04-26T03:22:34.824Z,100688.87
2018-04-26T03:23:38.168Z,100683.59
2018-04-26T03:24:41.567Z,100697.03
2018-04-26T03:25:44.876Z,100688.28
2018-04-26T03:26:48.224Z,100698.23
2018-04-26T03:28:50.567Z,100695.02
2018-04-26T03:29:54.666Z,100692.64
2018-04-26T03:32:03.154Z,100701.67
2018-04-26T03:33:06.446Z,100702.77
2018-04-26T03:34:10.318Z,100706.80
2018-04-26T03:35:13.686Z,100710.60
2018-04-26T03:36:17.039Z,100713.65
2018-04-26T03:37:20.545Z,100714.09
2018-04-26T03:38:24.626Z,100700.80
2018-04-26T03:39:28.089Z,100709.66
2018-04-26T03:40:31.531Z,100721.84
2018-04-26T03:41:34.869Z,100716.35
2018-04-26T03:42:38.187Z,100706.51
2018-04-26T03:43:41.501Z,100712.30
2018-04-26T03:44:44.848Z,100709.55
2018-04-26T03:45:48.999Z,100711.22
2018-04-26T03:46:52.375Z,100708.72
2018-04-26T03:47:55.749Z,100709.58
2018-04-26T03:48:59.087Z,100712.17
2018-04-26T03:50:02.468Z,100721.46
2018-04-26T03:51:05.944Z,100702.55
2018-04-26T03:52:09.277Z,100721.36
2018-04-26T03:53:12.646Z,100712.14
2018-04-26T03:54:16.799Z,100720.34
2018-04-26T03:55:20.334Z,100718.91
2018-04-26T03:56:23.733Z,100714.05
2018-04-26T03:57:27.801Z,100717.93
2018-04-26T03:58:31.108Z,100717.67
2018-04-26T03:59:52.708Z,100719.10
2018-04-26T04:01:14.467Z,100716.98
2018-04-26T04:02:37.200Z,100716.61
2018-04-26T04:03:59.363Z,100720.70
2018-04-26T04:05:21.194Z,100708.00
2018-04-26T04:06:24.505Z,100713.56
2018-04-26T04:07:27.804Z,100719.91
2018-04-26T04:08:31.946Z,100719.42
2018-04-26T04:09:35.251Z,100720.34
2018-04-26T04:10:38.623Z,100719.97
2018-04-26T04:11:41.966Z,100722.27
2018-04-26T04:12:46.096Z,100727.65
2018-04-26T04:13:53.324Z,100732.56
2018-04-26T04:16:07.596Z,100727.41
2018-04-26T04:17:11.658Z,100726.25
2018-04-26T04:18:15.036Z,100733.13
2018-04-26T04:19:18.382Z,100730.45
2018-04-26T04:20:21.700Z,100726.47
2018-04-26T04:21:25.110Z,100735.09
2018-04-26T04:22:28.492Z,100729.55
2018-04-26T04:23:31.850Z,100733.52
2018-04-26T04:24:35.237Z,100738.81
2018-04-26T04:26:48.081Z,100737.17
2018-04-26T04:27:51.484Z,100732.16
2018-04-26T04:28:54.785Z,100741.52
2018-04-26T04:29:58.318Z,100749.98
2018-04-26T04:31:01.678Z,100745.12
2018-04-26T04:32:05.862Z,100747.23
2018-04-26T04:33:09.951Z,100754.19
2018-04-26T04:34:14.106Z,100753.03
2018-04-26T04:35:17.514Z,100754.31
2018-04-26T04:36:20.821Z,100759.07
2018-04-26T04:37:24.159Z,100754.20
2018-04-26T04:38:27.610Z,100747.12
2018-04-26T04:39:30.988Z,100755.02
2018-04-26T04:40:42.748Z,100757.70
2018-04-26T04:41:46.942Z,100757.27
2018-04-26T04:42:50.257Z,100757.05
2018-04-26T04:43:53.586Z,100761.37
2018-04-26T04:44:56.934Z,100763.99
2018-04-26T04:46:01.062Z,100767.98
2018-04-26T04:47:04.384Z,100765.74
2018-04-26T04:48:07.723Z,100748.71
2018-04-26T04:49:11.097Z,100765.05
2018-04-26T04:50:15.242Z,100763.69
2018-04-26T04:51:18.699Z,100767.31
2018-04-26T04:52:22.095Z,100767.62
2018-04-26T04:53:25.428Z,100767.26
2018-04-26T04:54:28.760Z,100769.43
2018-04-26T04:55:32.059Z,100766.70
2018-04-26T04:56:35.415Z,100768.66
2018-04-26T04:57:39.488Z,100775.08
2018-04-26T04:58:42.814Z,100775.66
2018-04-26T04:59:46.930Z,100763.91
2018-04-26T05:00:50.303Z,100770.44
2018-04-26T05:01:53.641Z,100774.81
2018-04-26T05:02:56.970Z,100777.30
2018-04-26T05:04:00.341Z,100773.63
2018-04-26T05:05:03.722Z,100781.38
2018-04-26T05:06:08.097Z,100780.58
2018-04-26T05:07:11.482Z,100777.28
2018-04-26T05:08:14.826Z,100779.58
2018-04-26T05:09:18.138Z,100763.16
2018-04-26T05:10:21.462Z,100777.83
2018-04-26T05:11:24.809Z,100779.02
2018-04-26T05:13:37.669Z,100778.26
2018-04-26T05:14:41.000Z,100782.42
2018-04-26T05:15:44.311Z,100771.56
2018-04-26T05:16:47.673Z,100781.13
2018-04-26T05:17:51.103Z,100786.55
2018-04-26T05:18:54.947Z,100781.16
2018-04-26T05:19:58.365Z,100779.87
2018-04-26T05:21:01.730Z,100786.58
2018-04-26T05:22:05.184Z,100782.98
2018-04-26T05:23:08.605Z,100789.28
2018-04-26T05:24:12.029Z,100792.83
2018-04-26T05:25:15.430Z,100787.79
2018-04-26T05:26:21.710Z,100792.94
2018-04-26T05:27:25.494Z,100796.19
2018-04-26T05:28:29.809Z,100798.16
2018-04-26T05:29:33.840Z,100793.20
2018-04-26T05:30:37.242Z,100809.14
2018-04-26T05:31:40.614Z,100797.95
2018-04-26T05:32:44.000Z,100803.07
2018-04-26T05:33:47.331Z,100803.67
2018-04-26T05:39:41.264Z,100808.95
2018-04-26T05:40:45.017Z,100804.14
2018-04-26T05:41:48.463Z,100812.55
2018-04-26T05:42:51.997Z,100799.42
2018-04-26T05:43:56.389Z,100808.09
2018-04-26T05:44:59.913Z,100804.90
2018-04-26T05:46:03.264Z,100800.52
2018-04-26T05:47:15.156Z,100715.70
2018-04-26T05:48:20.670Z,100806.73
2018-04-26T05:49:26.026Z,100810.64
2018-04-26T05:50:29.455Z,100811.78
2018-04-26T05:51:33.099Z,100816.70
2018-04-26T05:52:36.447Z,100810.91
2018-04-26T05:53:39.825Z,100814.11
2018-04-26T05:54:43.158Z,100809.64
2018-04-26T05:55:46.799Z,100823.45
2018-04-26T05:56:50.134Z,100819.75
2018-04-26T05:57:53.498Z,100821.84
2018-04-26T05:58:57.899Z,100817.56
2018-04-26T06:00:01.304Z,100816.05
2018-04-26T06:01:04.682Z,100831.62
2018-04-26T06:02:08.846Z,100821.02
2018-04-26T06:03:12.310Z,100830.73
2018-04-26T06:04:16.490Z,100830.78
2018-04-26T06:05:20.345Z,100824.05
2018-04-26T06:06:23.716Z,100825.02
2018-04-26T06:07:27.859Z,100829.47
2018-04-26T06:08:31.260Z,100843.10
2018-04-26T06:09:34.897Z,100836.18
2018-04-26T06:10:38.248Z,100823.50
2018-04-26T06:11:42.102Z,100842.93
2018-04-26T06:12:45.539Z,100845.88
2018-04-26T06:13:48.891Z,100855.00
2018-04-26T06:14:52.230Z,100844.44
2018-04-26T06:15:55.572Z,100842.06
2018-04-26T06:16:58.937Z,100849.55
2018-04-26T06:18:02.282Z,100857.39
2018-04-26T06:19:05.831Z,100853.36
2018-04-26T06:20:09.156Z,100859.55
2018-04-26T06:21:12.540Z,100857.75
2018-04-26T06:22:15.885Z,100863.52
2018-04-26T06:23:19.265Z,100868.78
2018-04-26T06:24:22.571Z,100868.98
2018-04-26T06:25:25.922Z,100873.68
2018-04-26T06:26:29.435Z,100880.94
2018-04-26T06:27:32.845Z,100869.84
2018-04-26T06:28:36.202Z,100876.63
2018-04-26T06:29:40.044Z,100867.13
2018-04-26T06:30:43.617Z,100861.01
2018-04-26T06:31:47.227Z,100876.43
2018-04-26T06:32:50.601Z,100886.14
2018-04-26T06:33:54.054Z,100881.99
2018-04-26T06:34:57.371Z,100880.16
2018-04-26T06:36:00.687Z,100875.45
2018-04-26T06:37:04.008Z,100887.06
2018-04-26T06:38:07.409Z,100886.58
2018-04-26T06:39:11.018Z,100895.86
2018-04-26T06:40:15.172Z,100880.64
2018-04-26T06:42:27.277Z,100883.50
2018-04-26T06:43:30.591Z,100893.31
2018-04-26T06:44:33.943Z,100892.34
2018-04-26T06:45:37.372Z,100884.20
2018-04-26T06:46:40.784Z,100882.80
2018-04-26T06:47:44.874Z,100876.66
2018-04-26T06:48:48.284Z,100887.53
2018-04-26T06:49:51.656Z,100884.69
2018-04-26T06:50:55.001Z,100888.59
2018-04-26T06:51:59.449Z,100891.22
2018-04-26T06:53:02.833Z,100888.97
2018-04-26T06:54:06.261Z,100895.27
2018-04-26T06:55:09.638Z,100899.81
2018-04-26T06:56:13.131Z,100904.55
2018-04-26T06:57:16.488Z,100904.04
2018-04-26T06:58:19.901Z,100908.11
2018-04-26T06:59:23.255Z,100911.89
2018-04-26T07:00:27.437Z,100907.75
2018-04-26T07:01:30.776Z,100900.76
2018-04-26T07:02:34.100Z,100905.95
2018-04-26T07:03:37.601Z,100903.92
2018-04-26T07:04:41.054Z,100909.62
2018-04-26T07:05:44.521Z,100904.52
2018-04-26T07:06:47.852Z,100917.22
2018-04-26T07:07:51.206Z,100911.73
2018-04-26T07:08:54.582Z,100910.53
2018-04-26T07:09:57.965Z,100910.77
2018-04-26T07:11:01.316Z,100916.88
2018-04-26T07:12:04.797Z,100909.60
2018-04-26T07:13:08.190Z,100908.45
2018-04-26T07:14:11.688Z,100914.38
2018-04-26T07:15:15.091Z,100920.02
2018-04-26T07:16:18.647Z,100911.30
2018-04-26T07:17:22.008Z,100912.04
2018-04-26T07:18:25.355Z,100918.09
2018-04-26T07:19:28.728Z,100916.30
2018-04-26T07:20:32.136Z,100925.66
2018-04-26T07:21:35.496Z,100924.09
2018-04-26T07:22:39.662Z,100927.30
2018-04-26T07:23:43.071Z,100924.44
2018-04-26T07:24:46.496Z,100920.00
2018-04-26T07:25:49.835Z,100918.34
2018-04-26T07:26:53.194Z,100918.59
2018-04-26T07:27:56.491Z,100919.13
2018-04-26T07:28:59.888Z,100921.66
2018-04-26T07:30:03.280Z,100922.50
2018-04-26T07:31:06.677Z,100925.90
2018-04-26T07:32:10.843Z,100928.97
2018-04-26T07:33:14.154Z,100926.78
2018-04-26T07:34:18.342Z,100918.75
2018-04-26T07:35:21.712Z,100925.68
2018-04-26T07:36:25.113Z,100914.98
2018-04-26T07:37:28.488Z,100922.33
2018-04-26T07:38:31.868Z,100928.69
2018-04-26T07:39:35.176Z,100924.98
2018-04-26T07:40:38.507Z,100925.83
2018-04-26T07:41:41.861Z,100923.28
2018-04-26T07:42:45.209Z,100925.63
2018-04-26T07:43:48.660Z,100926.28
2018-04-26T07:44:52.096Z,100923.30
2018-04-26T07:45:55.367Z,100920.41
2018-04-26T07:46:58.762Z,100921.23
2018-04-26T07:48:02.094Z,100930.02
2018-04-26T07:49:05.403Z,100926.72
2018-04-26T07:50:08.784Z,100930.62
2018-04-26T07:51:12.229Z,100938.25
2018-04-26T07:52:15.856Z,100936.78
2018-04-26T07:53:19.244Z,100926.94
2018-04-26T07:54:23.331Z,100933.59
2018-04-26T07:55:26.738Z,100925.94
2018-04-26T07:56:30.086Z,100933.47
2018-04-26T07:57:33.443Z,100937.63
2018-04-26T07:58:36.804Z,100939.19
2018-04-26T07:59:40.155Z,100942.70
2018-04-26T08:00:44.282Z,100934.48
2018-04-26T08:01:47.744Z,100940.80
2018-04-26T08:02:51.129Z,100940.31
2018-04-26T08:03:54.476Z,100942.72
2018-04-26T08:04:57.800Z,100938.98
2018-04-26T08:06:01.128Z,100948.66
2018-04-26T08:07:04.469Z,100944.33
2018-04-26T08:08:08.645Z,100935.94
2018-04-26T08:09:11.959Z,100937.27
2018-04-26T08:10:15.348Z,100942.91
2018-04-26T08:11:19.422Z,100942.74
2018-04-26T08:12:22.741Z,100927.90
2018-04-26T08:13:26.909Z,100944.66
2018-04-26T08:14:30.246Z,100949.10
2018-04-26T08:15:33.588Z,100936.05
2018-04-26T08:16:37.050Z,100933.98
2018-04-26T08:17:40.406Z,100930.47
2018-04-26T08:18:43.764Z,100933.24
2018-04-26T08:19:47.086Z,100935.83
2018-04-26T08:20:50.433Z,100934.66
2018-04-26T08:21:53.849Z,100931.31
2018-04-26T08:22:57.126Z,100958.13
2018-04-26T08:24:00.484Z,100945.41
2018-04-26T08:25:03.903Z,100938.41
2018-04-26T08:26:07.155Z,100932.08
2018-04-26T08:27:11.160Z,100940.02
2018-04-26T08:28:14.524Z,100941.81
2018-04-26T08:29:17.874Z,100940.84
2018-04-26T08:30:21.192Z,100946.33
2018-04-26T08:31:24.526Z,100949.74
2018-04-26T08:32:27.870Z,100950.48
2018-04-26T08:33:31.203Z,100959.62
2018-04-26T08:34:34.575Z,100958.50
2018-04-26T08:35:38.695Z,100967.90
2018-04-26T08:36:42.034Z,100975.27
2018-04-26T08:37:45.375Z,100949.98
2018-04-26T08:38:48.707Z,100967.66
2018-04-26T08:39:52.130Z,100959.09
2018-04-26T08:40:55.445Z,100958.73
2018-04-26T08:41:58.835Z,100967.87
2018-04-26T08:43:02.149Z,100958.33
2018-04-26T08:44:05.493Z,100974.46
2018-04-26T08:45:09.035Z,100975.13
2018-04-26T08:46:12.409Z,100976.41
2018-04-26T08:47:15.800Z,100967.52
2018-04-26T08:48:19.956Z,100977.91
2018-04-26T08:49:23.305Z,100979.69
2018-04-26T08:50:27.448Z,100980.55
2018-04-26T08:51:30.768Z,100985.79
2018-04-26T08:52:34.183Z,100982.90
2018-04-26T08:53:38.337Z,100981.77
2018-04-26T08:54:41.797Z,100981.78
2018-04-26T08:55:45.190Z,100991.00
2018-04-26T08:56:48.622Z,100983.19
2018-04-26T08:57:51.965Z,100986.86
2018-04-26T08:58:55.310Z,100983.17
2018-04-26T08:59:58.642Z,100986.17
2018-04-26T09:01:02.035Z,100984.19
2018-04-26T09:02:05.332Z,100985.18
2018-04-26T09:03:08.653Z,100982.56
2018-04-26T09:04:11.976Z,100987.73
2018-04-26T09:05:15.268Z,100984.16
2018-04-26T09:06:18.592Z,100988.14
2018-04-26T09:07:22.004Z,100988.02
2018-04-26T09:08:26.150Z,100994.53
2018-04-26T09:09:29.486Z,100988.94
2018-04-26T09:10:33.611Z,100989.24
2018-04-26T09:11:36.966Z,100976.81
2018-04-26T09:12:40.336Z,100980.00
2018-04-26T09:13:43.661Z,100965.04
2018-04-26T09:14:46.961Z,100979.41
2018-04-26T09:15:50.287Z,100992.00
2018-04-26T09:16:53.628Z,101002.52
2018-04-26T09:17:56.956Z,100985.13
2018-04-26T09:19:00.274Z,100986.67
2018-04-26T09:20:03.632Z,100988.27
2018-04-26T09:21:08.301Z,100987.08
2018-04-26T09:22:11.623Z,100983.38
2018-04-26T09:23:14.984Z,100991.05
2018-04-26T09:25:34.453Z,100985.86
2018-04-26T09:26:38.021Z,100987.39
2018-04-26T09:27:41.390Z,100997.28
2018-04-26T09:29:45.223Z,100997.48
2018-04-26T09:30:48.538Z,100995.84
2018-04-26T09:31:51.895Z,101002.05
2018-04-26T09:32:55.777Z,101003.16
2018-04-26T09:33:59.210Z,101005.78
2018-04-26T09:35:02.571Z,101006.38
2018-04-26T09:36:05.946Z,101014.37
2018-04-26T09:37:09.302Z,101008.55
2018-04-26T09:38:12.625Z,101001.29
2018-04-26T09:39:15.993Z,101018.06
2018-04-26T09:40:19.316Z,101012.95
2018-04-26T09:41:22.713Z,101011.22
2018-04-26T09:42:26.041Z,101019.55
2018-04-26T09:43:29.726Z,101007.26
2018-04-26T09:44:33.057Z,101005.01
2018-04-26T09:45:36.363Z,101018.45
2018-04-26T09:46:39.699Z,101017.39
2018-04-26T09:47:43.031Z,101007.20
2018-04-26T09:48:47.165Z,101010.27
2018-04-26T09:49:51.250Z,100998.12
2018-04-26T09:50:54.575Z,101013.41
2018-04-26T09:51:57.926Z,101012.24
2018-04-26T09:53:01.297Z,101001.08
2018-04-26T09:54:04.636Z,101016.25
2018-04-26T09:55:07.996Z,101000.32
2018-04-26T09:56:11.337Z,101005.23
2018-04-26T09:57:14.647Z,101002.33
2018-04-26T09:58:18.001Z,100999.78
2018-04-26T09:59:21.387Z,101012.59
2018-04-26T10:00:28.608Z,101008.96
2018-04-26T10:01:35.831Z,101014.25
2018-04-26T10:02:44.585Z,101007.20
2018-04-26T10:03:54.293Z,101008.34
2018-04-26T10:04:57.623Z,101014.29
2018-04-26T10:06:00.953Z,101010.89
2018-04-26T10:07:04.322Z,101003.45
2018-04-26T10:08:07.643Z,101005.67
2018-04-26T10:09:11.014Z,101012.00
2018-04-26T10:10:14.381Z,101007.53
2018-04-26T10:11:17.795Z,101004.08
2018-04-26T10:12:21.152Z,101006.59
2018-04-26T10:13:24.494Z,101002.59
2018-04-26T10:14:27.864Z,101005.14
2018-04-26T10:15:31.211Z,101005.99
2018-04-26T10:16:34.562Z,101009.91
2018-04-26T10:17:37.884Z,101010.94
2018-04-26T10:18:41.178Z,101010.33
2018-04-26T10:19:44.521Z,101009.94
2018-04-26T10:20:47.875Z,101013.95
2018-04-26T10:21:51.205Z,101006.05
2018-04-26T10:22:54.530Z,101008.55
2018-04-26T10:23:58.024Z,101020.27
2018-04-26T10:25:01.395Z,101024.04
2018-04-26T10:26:04.774Z,101017.16
2018-04-26T10:27:08.117Z,101013.38
2018-04-26T10:28:11.688Z,101021.55
2018-04-26T10:29:15.022Z,101012.83
2018-04-26T10:30:18.406Z,101016.03
2018-04-26T10:31:21.801Z,101023.92
2018-04-26T10:32:25.164Z,101029.19
2018-04-26T10:33:28.646Z,101018.95
2018-04-26T10:34:32.712Z,101025.17
2018-04-26T10:35:36.063Z,101042.76
2018-04-26T10:36:39.526Z,101018.80
2018-04-26T10:37:43.629Z,101013.46
2018-04-26T10:38:46.963Z,101017.24
2018-04-26T10:39:50.304Z,101022.44
2018-04-26T10:40:53.675Z,101025.91
2018-04-26T10:41:57.008Z,101026.52
2018-04-26T10:43:00.335Z,101021.81
2018-04-26T10:44:03.672Z,101028.62
2018-04-26T10:45:07.015Z,101031.76
2018-04-26T10:46:10.329Z,101025.43
2018-04-26T10:47:13.671Z,101034.17
2018-04-26T10:48:16.964Z,101035.63
2018-04-26T10:49:21.146Z,101025.19
2018-04-26T10:50:24.449Z,101040.20
2018-04-26T10:51:29.439Z,101033.26
2018-04-26T10:52:32.783Z,101046.89
2018-04-26T10:53:36.878Z,101033.01
2018-04-26T10:54:40.181Z,101035.95
2018-04-26T10:55:43.486Z,101035.05
2018-04-26T10:56:46.829Z,101035.36
2018-04-26T10:57:50.944Z,101024.31
2018-04-26T10:58:54.259Z,101024.25
2018-04-26T10:59:57.573Z,101032.73
2018-04-26T11:01:01.244Z,101028.50
2018-04-26T11:02:04.918Z,101028.62
2018-04-26T11:03:08.240Z,101024.16
2018-04-26T11:04:11.547Z,101029.07
2018-04-26T11:05:15.804Z,101028.42
2018-04-26T11:06:19.135Z,101029.19
2018-04-26T11:07:22.478Z,101030.21
2018-04-26T11:08:25.808Z,101020.77
2018-04-26T11:09:29.954Z,101018.02
2018-04-26T11:10:33.294Z,101024.34
2018-04-26T11:11:36.702Z,101026.63
2018-04-26T11:12:40.095Z,101021.64
2018-04-26T11:13:43.626Z,101012.05
2018-04-26T11:14:47.066Z,101010.12
2018-04-26T11:15:50.490Z,101005.70
2018-04-26T11:16:53.888Z,101014.13
2018-04-26T11:17:57.655Z,101014.23
2018-04-26T11:19:01.003Z,101012.88
2018-04-26T11:20:04.331Z,101033.44
2018-04-26T11:21:07.661Z,101015.64
2018-04-26T11:22:10.987Z,101019.19
2018-04-26T11:23:14.347Z,101017.38
2018-04-26T11:24:18.563Z,101012.77
2018-04-26T11:25:22.687Z,101020.42
2018-04-26T11:26:26.024Z,101021.86
2018-04-26T11:27:29.390Z,101020.91
2018-04-26T11:28:32.694Z,101025.84
2018-04-26T11:29:36.020Z,101017.63
2018-04-26T11:30:39.386Z,101027.49
2018-04-26T11:31:42.707Z,101017.25
2018-04-26T11:32:46.056Z,101016.44
2018-04-26T11:33:50.178Z,101022.95
2018-04-26T11:34:53.529Z,101011.33
2018-04-26T11:35:57.665Z,101006.73
2018-04-26T11:37:01.041Z,101017.55
2018-04-26T11:38:04.409Z,101023.21
2018-04-26T11:39:07.763Z,101024.69
2018-04-26T11:40:11.148Z,101015.36
2018-04-26T11:41:14.465Z,101020.95
2018-04-26T11:42:17.873Z,101009.18
2018-04-26T11:43:21.223Z,101004.89
2018-04-26T11:44:24.573Z,101003.95
2018-04-26T11:45:27.984Z,101006.87
2018-04-26T11:46:31.375Z,101011.68
2018-04-26T11:47:34.797Z,101018.25
2018-04-26T11:48:38.122Z,101005.61
2018-04-26T11:49:41.466Z,101016.02
2018-04-26T11:50:44.820Z,101010.56
2018-04-26T11:51:48.954Z,101011.05
2018-04-26T11:52:52.382Z,101012.78
2018-04-26T11:53:55.820Z,101019.50
2018-04-26T11:54:59.172Z,101016.37
2018-04-26T11:56:02.553Z,101006.02
2018-04-26T11:57:05.886Z,101013.70
2018-04-26T11:58:09.979Z,101008.05
2018-04-26T11:59:13.304Z,101011.88
2018-04-26T12:00:16.627Z,101005.03
2018-04-26T12:01:19.990Z,101030.88
2018-04-26T12:02:23.453Z,101026.56
2018-04-26T12:03:27.533Z,101017.80
2018-04-26T12:04:31.709Z,101019.61
2018-04-26T12:05:35.733Z,101024.60
2018-04-26T12:06:39.114Z,101032.59
2018-04-26T12:07:42.483Z,101021.83
2018-04-26T12:08:45.767Z,101019.26
2018-04-26T12:09:49.093Z,101016.02
2018-04-26T12:10:52.556Z,101008.84
2018-04-26T12:11:55.939Z,101013.54
2018-04-26T12:12:59.356Z,101006.30
2018-04-26T12:14:02.719Z,101011.22
2018-04-26T12:15:06.068Z,101007.71
2018-04-26T12:16:09.387Z,101010.02
2018-04-26T12:17:12.801Z,101023.77
2018-04-26T12:18:16.157Z,101024.95
2018-04-26T12:19:19.523Z,101020.25
2018-04-26T12:20:22.936Z,100997.64
2018-04-26T12:21:26.328Z,101011.00